Impacts TAF Board
For situational awareness. Not to be used for flight planning purposes.
IDs:

KHDN - Hayden/Yampa Valley, CO, US

Issued at 0055 UTC 06 Dec 2019
Updated at 0103 UTC 06 Dec 2019
Potential Impact None Slight Moderate High
Time<<06/14Z 06/15Z 06/16Z 06/17Z 06/18Z 06/19Z 06/20Z 06/21Z 06/22Z 06/23Z 07/00Z 07/01Z 07/02Z>>
Type PRVL PRVL PRVL PRVL PRVL PRVL PRVL PRVL PRVL PRVL
VIS >6 >6 >6 >6 >6 >6 >6 >6 >6 >6
CIG 25 25 -- -- -- -- -- -- -- --
Cover OVC OVC SCT SCT SCT SCT SCT SCT SCT SCT
FltCat MVFR MVFR VFR VFR VFR VFR VFR VFR VFR VFR
WX -- -- -- -- -- -- -- -- -- --
WDir 100 100 VRB VRB VRB VRB VRB VRB VRB VRB
WSpd 4 4 4 4 4 4 4 4 4 4
WGst -- -- -- -- -- -- -- -- -- --
Raw TAF
KHDN 060055Z 0601/0624 26003KT P6SM OVC009
  FM060800 09003KT P6SM OVC015
  FM061200 10004KT P6SM OVC025
  FM061600 VRB04KT P6SM SCT028


METAR Board
Radar Display
Forecast Discussion
For situational awareness. Not to be used for flight planning purposes.